Points, West Virginia
Current Conditions -  °F | °C
As of 5:36 AM on Friday 24 Oct 2014 (Local Time) from KCBE Reporting Station
Scattered Clouds Scattered Clouds  
Wind Chill: 52°   Ceiling: Unl
Heat Index: 52°   Visibility: 10mi
Dew Point: 41°   Wind: 9mph
Humidity: 67%   Direction: 320°NW
Pressure: 30.07"   Gusts: 17mph
Location:  39.44°N, 78.61°W
Report Text: KCBE 240936Z AUTO 32008G15KT 10SM SCT028 11/05 A3007 RMK AO1
Loading
Personal Weather Stations






























Interactive Weather Map
Tropical Storm Tracking
New forecast layout! Learn more

10-Day Weather Forecast

Advertisements
Track Severe Weather on mobile